sensor_id;sensor_type;location;lat;lon;timestamp;temperature;humidity
15789;DHT22;59075;50.670;6.474;2022-11-15T06:00:48;19.40;99.90
15789;DHT22;59075;50.670;6.474;2022-11-15T06:03:15;19.40;99.90
15789;DHT22;59075;50.670;6.474;2022-11-15T06:05:42;19.40;99.90
15789;DHT22;59075;50.670;6.474;2022-11-15T06:08:08;19.40;99.90
15789;DHT22;59075;50.670;6.474;2022-11-15T06:10:35;19.40;99.90
15789;DHT22;59075;50.670;6.474;2022-11-15T06:13:04;19.40;99.90
15789;DHT22;59075;50.670;6.474;2022-11-15T06:15:32;19.40;99.90
15789;DHT22;59075;50.670;6.474;2022-11-15T06:18:00;19.40;99.90
15789;DHT22;59075;50.670;6.474;2022-11-15T06:20:28;19.40;99.90
15789;DHT22;59075;50.670;6.474;2022-11-15T06:22:57;19.40;99.90
15789;DHT22;59075;50.670;6.474;2022-11-15T06:25:24;19.40;99.90
15789;DHT22;59075;50.670;6.474;2022-11-15T06:27:51;19.40;99.90
15789;DHT22;59075;50.670;6.474;2022-11-15T06:30:18;19.40;99.90
15789;DHT22;59075;50.670;6.474;2022-11-15T06:32:45;19.40;99.90
15789;DHT22;59075;50.670;6.474;2022-11-15T06:35:14;19.40;99.90
15789;DHT22;59075;50.670;6.474;2022-11-15T06:37:41;19.40;99.90
15789;DHT22;59075;50.670;6.474;2022-11-15T06:40:09;19.40;99.90
15789;DHT22;59075;50.670;6.474;2022-11-15T06:42:36;19.40;99.90
15789;DHT22;59075;50.670;6.474;2022-11-15T06:45:03;19.40;99.90
15789;DHT22;59075;50.670;6.474;2022-11-15T06:47:30;19.40;99.90
15789;DHT22;59075;50.670;6.474;2022-11-15T06:49:57;19.40;99.90
15789;DHT22;59075;50.670;6.474;2022-11-15T06:52:25;19.40;99.90
15789;DHT22;59075;50.670;6.474;2022-11-15T06:54:51;19.40;99.90
15789;DHT22;59075;50.670;6.474;2022-11-15T06:57:18;19.40;99.90
15789;DHT22;59075;50.670;6.474;2022-11-15T06:59:45;19.40;99.90
15789;DHT22;59075;50.670;6.474;2022-11-15T07:02:12;19.40;99.90
15789;DHT22;59075;50.670;6.474;2022-11-15T07:04:39;19.40;99.90
15789;DHT22;59075;50.670;6.474;2022-11-15T07:07:06;19.40;99.90
15789;DHT22;59075;50.670;6.474;2022-11-15T07:09:35;19.40;99.90
15789;DHT22;59075;50.670;6.474;2022-11-15T07:12:01;19.40;99.90
15789;DHT22;59075;50.670;6.474;2022-11-15T07:14:28;19.40;99.90
15789;DHT22;59075;50.670;6.474;2022-11-15T07:16:55;19.40;99.90
15789;DHT22;59075;50.670;6.474;2022-11-15T07:19:21;19.40;99.90
15789;DHT22;59075;50.670;6.474;2022-11-15T07:21:48;19.40;99.90
15789;DHT22;59075;50.670;6.474;2022-11-15T07:24:15;19.40;99.90
15789;DHT22;59075;50.670;6.474;2022-11-15T07:26:43;19.40;99.90
15789;DHT22;59075;50.670;6.474;2022-11-15T07:29:10;19.40;99.90
15789;DHT22;59075;50.670;6.474;2022-11-15T07:31:36;19.40;99.90
15789;DHT22;59075;50.670;6.474;2022-11-15T07:34:03;19.40;99.90
15789;DHT22;59075;50.670;6.474;2022-11-15T07:36:30;19.40;99.90
15789;DHT22;59075;50.670;6.474;2022-11-15T07:38:56;19.40;99.90
15789;DHT22;59075;50.670;6.474;2022-11-15T07:41:23;19.40;99.90
15789;DHT22;59075;50.670;6.474;2022-11-15T07:43:52;19.40;99.90
15789;DHT22;59075;50.670;6.474;2022-11-15T07:46:19;19.40;99.90
15789;DHT22;59075;50.670;6.474;2022-11-15T07:48:45;19.40;99.90
15789;DHT22;59075;50.670;6.474;2022-11-15T07:51:12;19.40;99.90
15789;DHT22;59075;50.670;6.474;2022-11-15T07:53:40;19.40;99.90
15789;DHT22;59075;50.670;6.474;2022-11-15T07:56:07;19.40;99.90
15789;DHT22;59075;50.670;6.474;2022-11-15T07:58:33;19.40;99.90
15789;DHT22;59075;50.670;6.474;2022-11-15T08:01:04;19.40;99.90
15789;DHT22;59075;50.670;6.474;2022-11-15T08:03:31;19.40;99.90
15789;DHT22;59075;50.670;6.474;2022-11-15T08:05:58;19.40;99.90
15789;DHT22;59075;50.670;6.474;2022-11-15T08:08:25;19.40;99.90
15789;DHT22;59075;50.670;6.474;2022-11-15T08:10:52;19.40;99.90
15789;DHT22;59075;50.670;6.474;2022-11-15T08:13:19;19.40;99.90
15789;DHT22;59075;50.670;6.474;2022-11-15T08:15:46;19.40;99.90
15789;DHT22;59075;50.670;6.474;2022-11-15T08:18:15;19.40;99.90
15789;DHT22;59075;50.670;6.474;2022-11-15T08:20:43;19.50;99.90
15789;DHT22;59075;50.670;6.474;2022-11-15T08:23:11;19.50;99.90
15789;DHT22;59075;50.670;6.474;2022-11-15T08:25:38;19.50;99.90
15789;DHT22;59075;50.670;6.474;2022-11-15T08:28:07;19.50;99.90
15789;DHT22;59075;50.670;6.474;2022-11-15T08:30:36;19.50;99.90
15789;DHT22;59075;50.670;6.474;2022-11-15T08:33:03;19.50;99.90
15789;DHT22;59075;50.670;6.474;2022-11-15T08:35:31;19.50;99.90
15789;DHT22;59075;50.670;6.474;2022-11-15T08:37:58;19.50;99.90
15789;DHT22;59075;50.670;6.474;2022-11-15T08:40:24;19.50;99.90
15789;DHT22;59075;50.670;6.474;2022-11-15T08:42:52;19.50;99.90
15789;DHT22;59075;50.670;6.474;2022-11-15T08:45:19;19.50;99.90
15789;DHT22;59075;50.670;6.474;2022-11-15T08:47:45;19.50;99.90
15789;DHT22;59075;50.670;6.474;2022-11-15T08:50:12;19.50;99.90
15789;DHT22;59075;50.670;6.474;2022-11-15T08:52:40;19.50;99.90
15789;DHT22;59075;50.670;6.474;2022-11-15T08:55:07;19.50;99.90
15789;DHT22;59075;50.670;6.474;2022-11-15T08:57:35;19.50;99.90
15789;DHT22;59075;50.670;6.474;2022-11-15T09:00:02;19.50;99.90
15789;DHT22;59075;50.670;6.474;2022-11-15T09:02:29;19.50;99.90
15789;DHT22;59075;50.670;6.474;2022-11-15T09:04:56;19.60;99.90
15789;DHT22;59075;50.670;6.474;2022-11-15T09:07:22;19.60;99.90
15789;DHT22;59075;50.670;6.474;2022-11-15T09:09:50;19.60;99.90
15789;DHT22;59075;50.670;6.474;2022-11-15T09:12:17;19.60;99.90
15789;DHT22;59075;50.670;6.474;2022-11-15T09:14:44;19.70;99.90
15789;DHT22;59075;50.670;6.474;2022-11-15T09:17:10;19.70;99.90
15789;DHT22;59075;50.670;6.474;2022-11-15T09:22:05;19.70;99.90
15789;DHT22;59075;50.670;6.474;2022-11-15T09:24:33;19.70;99.90
15789;DHT22;59075;50.670;6.474;2022-11-15T09:27:01;19.70;99.90
15789;DHT22;59075;50.670;6.474;2022-11-15T09:29:27;19.70;99.90
15789;DHT22;59075;50.670;6.474;2022-11-15T09:31:54;19.70;99.90
15789;DHT22;59075;50.670;6.474;2022-11-15T09:34:21;19.70;99.90
15789;DHT22;59075;50.670;6.474;2022-11-15T09:36:48;19.70;99.90
15789;DHT22;59075;50.670;6.474;2022-11-15T09:39:14;19.70;99.90
15789;DHT22;59075;50.670;6.474;2022-11-15T09:42:03;19.70;99.90
15789;DHT22;59075;50.670;6.474;2022-11-15T09:44:53;19.70;99.90
15789;DHT22;59075;50.670;6.474;2022-11-15T09:50:31;19.70;99.90
15789;DHT22;59075;50.670;6.474;2022-11-15T09:52:58;19.70;99.90
15789;DHT22;59075;50.670;6.474;2022-11-15T09:55:32;19.70;99.90
15789;DHT22;59075;50.670;6.474;2022-11-15T09:58:08;19.70;99.90
15789;DHT22;59075;50.670;6.474;2022-11-15T10:00:40;19.70;99.90
15789;DHT22;59075;50.670;6.474;2022-11-15T10:03:11;19.70;99.90
15789;DHT22;59075;50.670;6.474;2022-11-15T10:05:40;19.70;99.90
15789;DHT22;59075;50.670;6.474;2022-11-15T10:08:21;19.70;99.90
15789;DHT22;59075;50.670;6.474;2022-11-15T10:10:53;19.70;99.90
15789;DHT22;59075;50.670;6.474;2022-11-15T10:13:24;19.70;99.90
15789;DHT22;59075;50.670;6.474;2022-11-15T10:15:53;19.80;99.90
15789;DHT22;59075;50.670;6.474;2022-11-15T10:18:25;19.80;99.90
15789;DHT22;59075;50.670;6.474;2022-11-15T10:20:59;19.80;99.90
15789;DHT22;59075;50.670;6.474;2022-11-15T10:23:27;19.80;99.90
15789;DHT22;59075;50.670;6.474;2022-11-15T10:25:55;19.80;99.90
15789;DHT22;59075;50.670;6.474;2022-11-15T10:28:27;19.80;99.90
15789;DHT22;59075;50.670;6.474;2022-11-15T10:30:55;19.80;99.90
15789;DHT22;59075;50.670;6.474;2022-11-15T10:33:30;19.80;99.90
15789;DHT22;59075;50.670;6.474;2022-11-15T10:36:16;19.80;99.90
15789;DHT22;59075;50.670;6.474;2022-11-15T10:38:55;19.80;99.90
15789;DHT22;59075;50.670;6.474;2022-11-15T10:41:29;19.80;99.90
15789;DHT22;59075;50.670;6.474;2022-11-15T10:47:20;19.80;99.90
15789;DHT22;59075;50.670;6.474;2022-11-15T10:49:54;19.90;99.90
15789;DHT22;59075;50.670;6.474;2022-11-15T10:52:21;19.90;99.90
15789;DHT22;59075;50.670;6.474;2022-11-15T10:54:52;19.90;99.90
15789;DHT22;59075;50.670;6.474;2022-11-15T10:57:22;19.90;99.90
15789;DHT22;59075;50.670;6.474;2022-11-15T10:59:54;19.90;99.90
15789;DHT22;59075;50.670;6.474;2022-11-15T11:02:28;19.90;99.90
15789;DHT22;59075;50.670;6.474;2022-11-15T11:04:55;19.90;99.90
15789;DHT22;59075;50.670;6.474;2022-11-15T11:10:02;19.90;99.90
15789;DHT22;59075;50.670;6.474;2022-11-15T11:12:31;20.00;99.90
15789;DHT22;59075;50.670;6.474;2022-11-15T11:15:02;20.00;99.90
15789;DHT22;59075;50.670;6.474;2022-11-15T11:17:49;20.00;99.90
15789;DHT22;59075;50.670;6.474;2022-11-15T11:20:22;20.00;99.90
15789;DHT22;59075;50.670;6.474;2022-11-15T11:23:01;20.00;99.90
15789;DHT22;59075;50.670;6.474;2022-11-15T11:25:34;19.90;99.90
15789;DHT22;59075;50.670;6.474;2022-11-15T11:28:22;19.90;99.90
15789;DHT22;59075;50.670;6.474;2022-11-15T11:31:00;19.90;99.90
15789;DHT22;59075;50.670;6.474;2022-11-15T11:33:31;19.90;99.90
15789;DHT22;59075;50.670;6.474;2022-11-15T11:36:07;19.90;99.90
15789;DHT22;59075;50.670;6.474;2022-11-15T11:38:48;19.90;99.90
15789;DHT22;59075;50.670;6.474;2022-11-15T11:41:36;19.90;99.90
15789;DHT22;59075;50.670;6.474;2022-11-15T11:44:15;19.90;99.90
15789;DHT22;59075;50.670;6.474;2022-11-15T11:46:55;19.90;99.90
15789;DHT22;59075;50.670;6.474;2022-11-15T11:49:26;19.80;99.90
15789;DHT22;59075;50.670;6.474;2022-11-15T11:51:59;19.90;99.90
15789;DHT22;59075;50.670;6.474;2022-11-15T11:54:34;19.80;99.90
15789;DHT22;59075;50.670;6.474;2022-11-15T11:57:07;19.90;99.90
15789;DHT22;59075;50.670;6.474;2022-11-15T11:59:41;19.90;99.90
15789;DHT22;59075;50.670;6.474;2022-11-15T12:02:15;19.90;99.90
15789;DHT22;59075;50.670;6.474;2022-11-15T12:04:47;19.90;99.90
15789;DHT22;59075;50.670;6.474;2022-11-15T12:07:19;19.90;99.90
15789;DHT22;59075;50.670;6.474;2022-11-15T12:09:53;19.90;99.90
15789;DHT22;59075;50.670;6.474;2022-11-15T12:12:27;19.90;99.90
15789;DHT22;59075;50.670;6.474;2022-11-15T12:14:59;19.90;99.90
15789;DHT22;59075;50.670;6.474;2022-11-15T12:17:30;20.00;99.90
15789;DHT22;59075;50.670;6.474;2022-11-15T12:19:59;20.00;99.90
15789;DHT22;59075;50.670;6.474;2022-11-15T12:22:33;20.00;99.90
15789;DHT22;59075;50.670;6.474;2022-11-15T12:25:06;20.00;99.90
15789;DHT22;59075;50.670;6.474;2022-11-15T12:27:36;20.00;99.90
15789;DHT22;59075;50.670;6.474;2022-11-15T12:30:10;20.00;99.90
15789;DHT22;59075;50.670;6.474;2022-11-15T12:32:48;20.00;99.90
15789;DHT22;59075;50.670;6.474;2022-11-15T12:35:24;20.10;99.90
15789;DHT22;59075;50.670;6.474;2022-11-15T12:37:51;20.10;99.90
15789;DHT22;59075;50.670;6.474;2022-11-15T12:40:38;20.10;99.90
15789;DHT22;59075;50.670;6.474;2022-11-15T12:46:12;20.10;99.90
15789;DHT22;59075;50.670;6.474;2022-11-15T12:48:58;20.10;99.90
15789;DHT22;59075;50.670;6.474;2022-11-15T12:52:03;20.00;99.90
15789;DHT22;59075;50.670;6.474;2022-11-15T12:54:52;20.10;99.90
15789;DHT22;59075;50.670;6.474;2022-11-15T12:57:38;20.10;99.90
15789;DHT22;59075;50.670;6.474;2022-11-15T13:03:27;20.10;99.90
15789;DHT22;59075;50.670;6.474;2022-11-15T13:12:52;20.10;99.90
15789;DHT22;59075;50.670;6.474;2022-11-15T13:18:36;20.00;99.90
15789;DHT22;59075;50.670;6.474;2022-11-15T13:21:19;20.00;99.90
15789;DHT22;59075;50.670;6.474;2022-11-15T13:24:03;20.00;99.90
15789;DHT22;59075;50.670;6.474;2022-11-15T13:26:31;20.10;99.90
15789;DHT22;59075;50.670;6.474;2022-11-15T13:28:58;20.00;99.90
15789;DHT22;59075;50.670;6.474;2022-11-15T13:31:29;20.00;99.90
15789;DHT22;59075;50.670;6.474;2022-11-15T13:33:59;20.00;99.90
15789;DHT22;59075;50.670;6.474;2022-11-15T13:36:30;20.00;99.90
15789;DHT22;59075;50.670;6.474;2022-11-15T13:39:00;20.00;99.90
15789;DHT22;59075;50.670;6.474;2022-11-15T13:41:29;20.00;99.90
15789;DHT22;59075;50.670;6.474;2022-11-15T13:43:56;20.00;99.90
15789;DHT22;59075;50.670;6.474;2022-11-15T13:46:24;20.00;99.90
15789;DHT22;59075;50.670;6.474;2022-11-15T13:48:54;20.00;99.90
15789;DHT22;59075;50.670;6.474;2022-11-15T13:51:25;20.00;99.90
15789;DHT22;59075;50.670;6.474;2022-11-15T13:54:00;20.00;99.90
15789;DHT22;59075;50.670;6.474;2022-11-15T13:56:48;20.00;99.90
15789;DHT22;59075;50.670;6.474;2022-11-15T13:59:23;19.90;99.90
15789;DHT22;59075;50.670;6.474;2022-11-15T14:01:50;19.90;99.90
15789;DHT22;59075;50.670;6.474;2022-11-15T14:04:20;19.90;99.90
15789;DHT22;59075;50.670;6.474;2022-11-15T14:06:50;19.90;99.90
15789;DHT22;59075;50.670;6.474;2022-11-15T14:09:31;19.90;99.90
15789;DHT22;59075;50.670;6.474;2022-11-15T14:12:00;19.90;99.90
15789;DHT22;59075;50.670;6.474;2022-11-15T14:14:28;19.90;99.90
15789;DHT22;59075;50.670;6.474;2022-11-15T14:16:56;19.80;99.90
15789;DHT22;59075;50.670;6.474;2022-11-15T14:19:37;19.90;99.90
15789;DHT22;59075;50.670;6.474;2022-11-15T14:22:16;19.90;99.90
15789;DHT22;59075;50.670;6.474;2022-11-15T14:24:46;19.90;99.90
15789;DHT22;59075;50.670;6.474;2022-11-15T14:27:24;19.90;99.90
15789;DHT22;59075;50.670;6.474;2022-11-15T14:29:54;19.80;99.90
15789;DHT22;59075;50.670;6.474;2022-11-15T14:32:23;19.90;99.90
15789;DHT22;59075;50.670;6.474;2022-11-15T14:34:55;19.80;99.90
15789;DHT22;59075;50.670;6.474;2022-11-15T14:37:24;19.80;99.90
15789;DHT22;59075;50.670;6.474;2022-11-15T14:39:53;19.90;99.90
15789;DHT22;59075;50.670;6.474;2022-11-15T14:42:21;19.90;99.90
15789;DHT22;59075;50.670;6.474;2022-11-15T14:45:00;19.80;99.90
15789;DHT22;59075;50.670;6.474;2022-11-15T14:47:27;19.90;99.90
15789;DHT22;59075;50.670;6.474;2022-11-15T14:49:54;19.90;99.90
15789;DHT22;59075;50.670;6.474;2022-11-15T14:52:26;19.90;99.90
15789;DHT22;59075;50.670;6.474;2022-11-15T14:54:55;19.90;99.90
15789;DHT22;59075;50.670;6.474;2022-11-15T14:57:23;19.90;99.90
15789;DHT22;59075;50.670;6.474;2022-11-15T15:02:20;19.90;99.90
15789;DHT22;59075;50.670;6.474;2022-11-15T15:04:47;19.90;99.90
15789;DHT22;59075;50.670;6.474;2022-11-15T15:07:14;19.90;99.90
15789;DHT22;59075;50.670;6.474;2022-11-15T15:09:42;19.90;99.90
15789;DHT22;59075;50.670;6.474;2022-11-15T15:12:16;19.90;99.90
15789;DHT22;59075;50.670;6.474;2022-11-15T15:14:44;19.90;99.90
15789;DHT22;59075;50.670;6.474;2022-11-15T15:17:11;19.90;99.90
15789;DHT22;59075;50.670;6.474;2022-11-15T15:19:37;19.90;99.90
15789;DHT22;59075;50.670;6.474;2022-11-15T15:22:04;19.90;99.90
15789;DHT22;59075;50.670;6.474;2022-11-15T15:24:31;20.00;99.90
15789;DHT22;59075;50.670;6.474;2022-11-15T15:26:58;19.90;99.90
15789;DHT22;59075;50.670;6.474;2022-11-15T15:29:26;19.90;99.90
15789;DHT22;59075;50.670;6.474;2022-11-15T15:31:52;19.90;99.90
15789;DHT22;59075;50.670;6.474;2022-11-15T15:34:19;19.90;99.90
15789;DHT22;59075;50.670;6.474;2022-11-15T15:36:46;19.90;99.90
15789;DHT22;59075;50.670;6.474;2022-11-15T15:39:12;19.90;99.90
15789;DHT22;59075;50.670;6.474;2022-11-15T15:41:39;19.90;99.90
15789;DHT22;59075;50.670;6.474;2022-11-15T15:44:06;19.90;99.90
15789;DHT22;59075;50.670;6.474;2022-11-15T15:46:34;19.80;99.90
15789;DHT22;59075;50.670;6.474;2022-11-15T15:49:01;19.90;99.90
15789;DHT22;59075;50.670;6.474;2022-11-15T15:51:28;19.90;99.90
15789;DHT22;59075;50.670;6.474;2022-11-15T15:53:55;19.80;99.90
15789;DHT22;59075;50.670;6.474;2022-11-15T15:56:23;19.80;99.90
15789;DHT22;59075;50.670;6.474;2022-11-15T15:58:50;19.80;99.90
15789;DHT22;59075;50.670;6.474;2022-11-15T16:01:18;19.80;99.90
15789;DHT22;59075;50.670;6.474;2022-11-15T16:03:46;19.80;99.90
15789;DHT22;59075;50.670;6.474;2022-11-15T16:06:34;19.80;99.90
15789;DHT22;59075;50.670;6.474;2022-11-15T16:09:02;19.80;99.90
15789;DHT22;59075;50.670;6.474;2022-11-15T16:11:29;19.80;99.90
15789;DHT22;59075;50.670;6.474;2022-11-15T16:13:56;19.80;99.90
15789;DHT22;59075;50.670;6.474;2022-11-15T16:16:22;19.80;99.90
15789;DHT22;59075;50.670;6.474;2022-11-15T16:18:51;19.80;99.90
15789;DHT22;59075;50.670;6.474;2022-11-15T16:21:19;19.80;99.90
15789;DHT22;59075;50.670;6.474;2022-11-15T16:23:45;19.80;99.90
15789;DHT22;59075;50.670;6.474;2022-11-15T16:26:18;19.80;99.90
15789;DHT22;59075;50.670;6.474;2022-11-15T16:28:46;19.70;99.90
15789;DHT22;59075;50.670;6.474;2022-11-15T16:31:13;19.80;99.90
15789;DHT22;59075;50.670;6.474;2022-11-15T16:33:40;19.70;99.90
15789;DHT22;59075;50.670;6.474;2022-11-15T16:36:17;19.70;99.90
15789;DHT22;59075;50.670;6.474;2022-11-15T16:38:44;19.70;99.90
15789;DHT22;59075;50.670;6.474;2022-11-15T16:41:11;19.70;99.90
15789;DHT22;59075;50.670;6.474;2022-11-15T16:43:38;19.70;99.90
15789;DHT22;59075;50.670;6.474;2022-11-15T16:46:08;19.70;99.90
15789;DHT22;59075;50.670;6.474;2022-11-15T16:48:38;19.70;99.90
15789;DHT22;59075;50.670;6.474;2022-11-15T16:51:05;19.70;99.90
15789;DHT22;59075;50.670;6.474;2022-11-15T16:53:34;19.70;99.90
15789;DHT22;59075;50.670;6.474;2022-11-15T16:56:02;19.70;99.90
15789;DHT22;59075;50.670;6.474;2022-11-15T16:58:29;19.70;99.90
15789;DHT22;59075;50.670;6.474;2022-11-15T17:00:57;19.70;99.90
15789;DHT22;59075;50.670;6.474;2022-11-15T17:03:24;19.70;99.90
15789;DHT22;59075;50.670;6.474;2022-11-15T17:05:51;19.70;99.90
15789;DHT22;59075;50.670;6.474;2022-11-15T17:08:18;19.70;99.90
15789;DHT22;59075;50.670;6.474;2022-11-15T17:10:47;19.70;99.90
15789;DHT22;59075;50.670;6.474;2022-11-15T17:13:14;19.70;99.90
15789;DHT22;59075;50.670;6.474;2022-11-15T17:18:10;19.70;99.90
15789;DHT22;59075;50.670;6.474;2022-11-15T17:20:37;19.70;99.90
15789;DHT22;59075;50.670;6.474;2022-11-15T17:23:04;19.70;99.90
15789;DHT22;59075;50.670;6.474;2022-11-15T17:25:36;19.70;99.90
15789;DHT22;59075;50.670;6.474;2022-11-15T17:28:04;19.70;99.90
15789;DHT22;59075;50.670;6.474;2022-11-15T17:30:31;19.70;99.90
15789;DHT22;59075;50.670;6.474;2022-11-15T17:32:57;19.70;99.90
15789;DHT22;59075;50.670;6.474;2022-11-15T17:35:25;19.70;99.90
15789;DHT22;59075;50.670;6.474;2022-11-15T17:37:52;19.70;99.90
15789;DHT22;59075;50.670;6.474;2022-11-15T17:40:19;19.70;99.90
15789;DHT22;59075;50.670;6.474;2022-11-15T17:42:45;19.70;99.90
15789;DHT22;59075;50.670;6.474;2022-11-15T17:45:13;19.60;99.90
15789;DHT22;59075;50.670;6.474;2022-11-15T17:47:40;19.70;99.90
15789;DHT22;59075;50.670;6.474;2022-11-15T17:50:08;19.70;99.90
15789;DHT22;59075;50.670;6.474;2022-11-15T17:52:35;19.70;99.90
15789;DHT22;59075;50.670;6.474;2022-11-15T17:55:01;19.70;99.90
15789;DHT22;59075;50.670;6.474;2022-11-15T17:57:28;19.60;99.90
15789;DHT22;59075;50.670;6.474;2022-11-15T17:59:55;19.60;99.90
15789;DHT22;59075;50.670;6.474;2022-11-15T18:02:23;19.60;99.90
15789;DHT22;59075;50.670;6.474;2022-11-15T18:04:49;19.60;99.90
15789;DHT22;59075;50.670;6.474;2022-11-15T18:09:43;19.60;99.90
15789;DHT22;59075;50.670;6.474;2022-11-15T18:12:10;19.60;99.90
15789;DHT22;59075;50.670;6.474;2022-11-15T18:14:37;19.60;99.90
15789;DHT22;59075;50.670;6.474;2022-11-15T18:17:04;19.60;99.90
15789;DHT22;59075;50.670;6.474;2022-11-15T18:19:32;19.60;99.90
15789;DHT22;59075;50.670;6.474;2022-11-15T18:21:59;19.60;99.90
15789;DHT22;59075;50.670;6.474;2022-11-15T18:24:27;19.70;99.90
15789;DHT22;59075;50.670;6.474;2022-11-15T18:27:07;19.60;99.90
15789;DHT22;59075;50.670;6.474;2022-11-15T18:29:34;19.60;99.90
15789;DHT22;59075;50.670;6.474;2022-11-15T18:32:02;19.60;99.90
15789;DHT22;59075;50.670;6.474;2022-11-15T18:34:32;19.60;99.90
15789;DHT22;59075;50.670;6.474;2022-11-15T18:36:59;19.70;99.90
15789;DHT22;59075;50.670;6.474;2022-11-15T18:39:27;19.60;99.90
15789;DHT22;59075;50.670;6.474;2022-11-15T18:41:53;19.60;99.90
15789;DHT22;59075;50.670;6.474;2022-11-15T18:44:20;19.60;99.90
15789;DHT22;59075;50.670;6.474;2022-11-15T18:46:47;19.60;99.90
15789;DHT22;59075;50.670;6.474;2022-11-15T18:49:15;19.60;99.90
15789;DHT22;59075;50.670;6.474;2022-11-15T18:51:43;19.60;99.90
15789;DHT22;59075;50.670;6.474;2022-11-15T18:54:13;19.60;99.90
15789;DHT22;59075;50.670;6.474;2022-11-15T18:56:40;19.60;99.90
15789;DHT22;59075;50.670;6.474;2022-11-15T18:59:08;19.70;99.90
15789;DHT22;59075;50.670;6.474;2022-11-15T19:01:36;19.70;99.90
15789;DHT22;59075;50.670;6.474;2022-11-15T19:04:06;19.70;99.90
15789;DHT22;59075;50.670;6.474;2022-11-15T19:06:36;19.70;99.90
15789;DHT22;59075;50.670;6.474;2022-11-15T19:09:05;19.70;99.90
15789;DHT22;59075;50.670;6.474;2022-11-15T19:11:33;19.70;99.90
15789;DHT22;59075;50.670;6.474;2022-11-15T19:14:02;19.70;99.90
15789;DHT22;59075;50.670;6.474;2022-11-15T19:16:30;19.70;99.90
15789;DHT22;59075;50.670;6.474;2022-11-15T19:18:58;19.70;99.90
15789;DHT22;59075;50.670;6.474;2022-11-15T19:21:27;19.70;99.90
15789;DHT22;59075;50.670;6.474;2022-11-15T19:23:55;19.70;99.90
15789;DHT22;59075;50.670;6.474;2022-11-15T19:26:23;19.70;99.90
15789;DHT22;59075;50.670;6.474;2022-11-15T19:28:51;19.80;99.90
15789;DHT22;59075;50.670;6.474;2022-11-15T19:31:19;19.70;99.90
15789;DHT22;59075;50.670;6.474;2022-11-15T19:33:46;19.70;99.90
15789;DHT22;59075;50.670;6.474;2022-11-15T19:36:15;19.70;99.90
15789;DHT22;59075;50.670;6.474;2022-11-15T19:38:42;19.70;99.90
15789;DHT22;59075;50.670;6.474;2022-11-15T19:41:13;19.80;99.90
15789;DHT22;59075;50.670;6.474;2022-11-15T19:43:41;19.70;99.90
15789;DHT22;59075;50.670;6.474;2022-11-15T19:46:10;19.70;99.90
15789;DHT22;59075;50.670;6.474;2022-11-15T19:48:37;19.80;99.90
15789;DHT22;59075;50.670;6.474;2022-11-15T19:51:06;19.80;99.90
15789;DHT22;59075;50.670;6.474;2022-11-15T19:53:33;19.80;99.90
15789;DHT22;59075;50.670;6.474;2022-11-15T19:56:01;19.80;99.90
15789;DHT22;59075;50.670;6.474;2022-11-15T19:58:28;19.80;99.90
15789;DHT22;59075;50.670;6.474;2022-11-15T20:01:00;19.80;99.90
15789;DHT22;59075;50.670;6.474;2022-11-15T20:03:27;19.80;99.90
15789;DHT22;59075;50.670;6.474;2022-11-15T20:06:00;19.70;99.90
15789;DHT22;59075;50.670;6.474;2022-11-15T20:08:27;19.80;99.90
15789;DHT22;59075;50.670;6.474;2022-11-15T20:10:54;19.70;99.90
15789;DHT22;59075;50.670;6.474;2022-11-15T20:13:21;19.70;99.90
15789;DHT22;59075;50.670;6.474;2022-11-15T20:15:48;19.70;99.90
15789;DHT22;59075;50.670;6.474;2022-11-15T20:18:16;19.80;99.90
15789;DHT22;59075;50.670;6.474;2022-11-15T20:20:43;19.80;99.90
15789;DHT22;59075;50.670;6.474;2022-11-15T20:28:04;19.70;99.90
15789;DHT22;59075;50.670;6.474;2022-11-15T20:30:45;19.70;99.90
15789;DHT22;59075;50.670;6.474;2022-11-15T20:33:13;19.80;99.90
15789;DHT22;59075;50.670;6.474;2022-11-15T20:35:41;19.80;99.90
15789;DHT22;59075;50.670;6.474;2022-11-15T20:38:08;19.80;99.90
15789;DHT22;59075;50.670;6.474;2022-11-15T20:40:36;19.80;99.90
15789;DHT22;59075;50.670;6.474;2022-11-15T20:47:58;19.80;99.90
15789;DHT22;59075;50.670;6.474;2022-11-15T20:50:25;19.80;99.90
15789;DHT22;59075;50.670;6.474;2022-11-15T20:52:54;19.80;99.90
15789;DHT22;59075;50.670;6.474;2022-11-15T20:55:22;19.80;99.90
15789;DHT22;59075;50.670;6.474;2022-11-15T20:57:49;19.80;99.90
15789;DHT22;59075;50.670;6.474;2022-11-15T21:00:17;19.80;99.90
15789;DHT22;59075;50.670;6.474;2022-11-15T21:02:46;19.80;99.90
15789;DHT22;59075;50.670;6.474;2022-11-15T21:05:13;19.80;99.90
15789;DHT22;59075;50.670;6.474;2022-11-15T21:07:40;19.80;99.90
15789;DHT22;59075;50.670;6.474;2022-11-15T21:10:09;19.80;99.90
15789;DHT22;59075;50.670;6.474;2022-11-15T21:12:53;19.80;99.90
15789;DHT22;59075;50.670;6.474;2022-11-15T21:15:20;19.80;99.90
15789;DHT22;59075;50.670;6.474;2022-11-15T21:17:46;19.80;99.90
15789;DHT22;59075;50.670;6.474;2022-11-15T21:20:13;19.90;99.90
15789;DHT22;59075;50.670;6.474;2022-11-15T21:22:41;19.80;99.90
15789;DHT22;59075;50.670;6.474;2022-11-15T21:25:09;19.80;99.90
15789;DHT22;59075;50.670;6.474;2022-11-15T21:27:36;19.80;99.90
15789;DHT22;59075;50.670;6.474;2022-11-15T21:30:04;19.80;99.90
15789;DHT22;59075;50.670;6.474;2022-11-15T21:32:31;19.80;99.90
15789;DHT22;59075;50.670;6.474;2022-11-15T21:34:57;19.80;99.90
15789;DHT22;59075;50.670;6.474;2022-11-15T21:37:25;19.80;99.90
15789;DHT22;59075;50.670;6.474;2022-11-15T21:39:51;19.80;99.90
15789;DHT22;59075;50.670;6.474;2022-11-15T21:42:19;19.80;99.90
15789;DHT22;59075;50.670;6.474;2022-11-15T21:44:46;19.80;99.90
15789;DHT22;59075;50.670;6.474;2022-11-15T21:47:13;19.80;99.90
15789;DHT22;59075;50.670;6.474;2022-11-15T21:49:39;19.80;99.90
15789;DHT22;59075;50.670;6.474;2022-11-15T21:52:06;19.80;99.90
15789;DHT22;59075;50.670;6.474;2022-11-15T21:54:33;19.80;99.90
15789;DHT22;59075;50.670;6.474;2022-11-15T21:56:59;19.80;99.90
15789;DHT22;59075;50.670;6.474;2022-11-15T21:59:27;19.80;99.90
